Time;durP1;ratioP1;P1;durP2;ratioP2;P2;SDS_P1;SDS_P2;PMS_P1;PMS_P2;Temp;Humidity;BMP_temperature;BMP_pressure;BME280_temperature;BME280_humidity;BME280_pressure;Samples;Min_cycle;Max_cycle;Signal;HPM_P1;HPM_P2
2022/01/30 00:00:00;;;;;;;7.15;5.32;;;;;;;18.18;25.95;97800.13;5151909;27;20068;-64
2022/01/30 00:02:27;;;;;;;7.38;5.13;;;;;;;18.22;25.83;97797.84;5151708;27;20021;-64
2022/01/30 00:04:52;;;;;;;7.15;4.80;;;;;;;18.25;26.02;97789.38;5151912;27;20165;-64
2022/01/30 00:07:18;;;;;;;5.68;4.82;;;;;;;18.25;25.92;97784.84;5151684;27;20022;-64
2022/01/30 00:09:43;;;;;;;6.43;4.90;;;;;;;18.28;26.22;97783.59;5155781;27;20006;-62
2022/01/30 00:12:09;;;;;;;7.38;4.47;;;;;;;18.29;26.21;97783.41;5176200;27;20027;-62
2022/01/30 00:14:37;;;;;;;5.40;4.25;;;;;;;18.29;26.09;97786.09;5151578;27;20019;-63
2022/01/30 00:22:54;;;;;;;6.47;4.30;;;;;;;18.32;25.90;97770.59;5151406;27;20044;-62
2022/01/30 00:25:15;;;;;;;5.30;3.95;;;;;;;18.32;26.01;97760.72;5161034;27;20030;-64
2022/01/30 00:27:50;;;;;;;5.43;4.22;;;;;;;18.35;26.07;97757.63;5171919;27;20135;-62
2022/01/30 00:30:17;;;;;;;4.63;3.63;;;;;;;18.37;25.88;97760.06;5172021;27;20025;-62
2022/01/30 00:32:44;;;;;;;4.72;4.03;;;;;;;18.37;25.89;97752.88;5171905;27;20049;-62
2022/01/30 00:35:10;;;;;;;6.05;4.20;;;;;;;18.41;25.76;97747.91;5171447;27;20022;-62
2022/01/30 00:37:40;;;;;;;6.18;3.92;;;;;;;18.40;25.71;97747.06;5171798;27;20042;-62
2022/01/30 00:40:07;;;;;;;4.70;3.35;;;;;;;18.41;25.84;97746.03;5171783;27;20022;-62
2022/01/30 00:42:33;;;;;;;4.57;3.55;;;;;;;18.41;25.63;97729.16;5164999;27;20030;-61
2022/01/30 00:44:59;;;;;;;4.60;3.22;;;;;;;18.40;25.56;97722.16;5171317;27;20045;-60
2022/01/30 00:47:24;;;;;;;4.70;3.75;;;;;;;18.41;25.44;97713.91;5171668;27;20142;-62
2022/01/30 00:49:50;;;;;;;5.03;3.90;;;;;;;18.42;25.50;97707.50;5171435;27;20250;-60
2022/01/30 00:52:17;;;;;;;4.70;3.50;;;;;;;18.43;25.70;97709.16;5171588;27;20045;-62
2022/01/30 00:54:43;;;;;;;5.03;3.63;;;;;;;18.44;25.67;97700.09;5171117;27;20018;-62
2022/01/30 00:57:10;;;;;;;4.47;3.60;;;;;;;18.44;25.37;97692.06;5171572;27;20046;-61
2022/01/30 00:59:35;;;;;;;4.72;3.55;;;;;;;18.45;25.52;97687.53;5170528;27;20288;-61
2022/01/30 01:02:01;;;;;;;4.43;3.47;;;;;;;18.46;25.21;97689.16;5171337;27;20018;-63
2022/01/30 01:04:27;;;;;;;4.90;3.00;;;;;;;18.46;25.30;97683.78;5170907;27;20021;-78
2022/01/30 01:06:52;;;;;;;3.67;2.50;;;;;;;18.48;25.34;97679.03;5171647;27;20046;-61
2022/01/30 01:09:22;;;;;;;3.70;2.72;;;;;;;18.48;25.63;97671.00;5171138;27;20026;-76
2022/01/30 01:12:23;;;;;;;4.70;2.75;;;;;;;18.50;25.42;97665.47;5170944;27;20046;-63
2022/01/30 01:25:36;;;;;;;3.88;2.67;;;;;;;18.41;25.18;97649.66;5170923;27;20013;-62
2022/01/30 01:28:01;;;;;;;4.05;2.67;;;;;;;18.45;25.01;97644.69;5170721;27;20015;-62
2022/01/30 01:30:27;;;;;;;5.38;3.22;;;;;;;18.45;25.07;97642.81;5170767;27;20022;-64
2022/01/30 01:32:52;;;;;;;4.18;2.90;;;;;;;18.44;25.10;97637.69;5170678;27;20060;-61
2022/01/30 01:35:18;;;;;;;3.63;2.25;;;;;;;18.41;24.90;97644.28;5170593;27;20010;-62
2022/01/30 01:37:43;;;;;;;3.47;2.22;;;;;;;18.38;25.04;97638.56;5170190;27;20046;-62
2022/01/30 01:40:09;;;;;;;6.25;2.22;;;;;;;18.35;25.12;97639.00;5170311;27;20003;-61
2022/01/30 01:42:36;;;;;;;2.70;1.55;;;;;;;18.30;24.96;97632.44;5166743;27;20366;-60
2022/01/30 01:45:09;;;;;;;2.65;1.90;;;;;;;18.28;24.99;97634.53;5170622;27;20002;-62
2022/01/30 01:47:35;;;;;;;2.00;1.67;;;;;;;18.25;24.93;97623.41;5170570;27;20212;-62
2022/01/30 01:50:01;;;;;;;2.20;1.70;;;;;;;18.22;24.92;97621.19;5170419;27;20010;-62
2022/01/30 01:52:27;;;;;;;2.78;1.85;;;;;;;18.19;24.83;97624.28;5170675;27;20010;-62
2022/01/30 01:54:59;;;;;;;2.10;1.65;;;;;;;18.18;25.08;97620.78;5170486;27;20191;-63
2022/01/30 01:57:26;;;;;;;2.85;2.15;;;;;;;18.14;25.17;97611.56;5170293;27;20023;-63
2022/01/30 01:59:53;;;;;;;3.20;2.05;;;;;;;18.12;25.11;97609.09;5164722;27;20022;-62
2022/01/30 02:02:19;;;;;;;3.88;2.25;;;;;;;18.11;25.18;97612.78;5131528;27;20270;-62
2022/01/30 02:04:46;;;;;;;2.67;2.08;;;;;;;18.11;25.47;97622.69;5149568;27;20311;-63
2022/01/30 02:07:43;;;;;;;3.45;1.80;;;;;;;18.08;25.16;97615.94;5149362;27;20011;-63
2022/01/30 02:10:00;;;;;;;1.95;1.50;;;;;;;18.06;25.28;97609.97;5148582;27;20037;-63
2022/01/30 02:12:34;;;;;;;2.85;1.60;;;;;;;18.03;25.14;97602.38;5149178;27;20039;-63
2022/01/30 02:15:17;;;;;;;2.38;1.73;;;;;;;18.02;25.03;97599.91;5149633;27;20020;-63
2022/01/30 02:26:01;;;;;;;2.25;1.63;;;;;;;17.92;25.13;97566.38;5149214;27;20193;-63
2022/01/30 02:28:28;;;;;;;2.17;1.70;;;;;;;17.93;25.26;97565.34;5149319;27;20067;-63
2022/01/30 02:31:19;;;;;;;2.08;1.42;;;;;;;17.91;24.97;97559.41;5148266;27;20239;-63
2022/01/30 02:33:41;;;;;;;2.28;1.63;;;;;;;17.89;25.12;97556.13;5148686;27;20034;-63
2022/01/30 02:36:07;;;;;;;2.17;1.50;;;;;;;17.91;25.13;97553.25;5148991;27;20014;-63
2022/01/30 02:38:32;;;;;;;1.92;1.40;;;;;;;17.88;25.22;97546.44;5148879;27;20058;-63
2022/01/30 02:40:58;;;;;;;1.63;1.30;;;;;;;17.88;25.19;97551.00;5148951;27;20064;-63
2022/01/30 02:43:32;;;;;;;2.72;1.90;;;;;;;17.87;25.15;97544.81;5148718;27;20296;-63
2022/01/30 02:48:59;;;;;;;2.38;1.75;;;;;;;17.84;25.15;97534.56;5103497;27;20019;-63
2022/01/30 02:51:33;;;;;;;2.65;1.85;;;;;;;17.84;25.37;97529.22;5148863;27;20019;-62
2022/01/30 02:54:07;;;;;;;2.28;1.65;;;;;;;17.84;25.34;97529.22;5148742;27;20019;-63
2022/01/30 02:56:34;;;;;;;3.03;1.60;;;;;;;17.84;25.29;97534.56;5148690;27;20046;-63
2022/01/30 02:59:00;;;;;;;2.13;1.60;;;;;;;17.82;25.44;97524.06;5148891;27;20014;-63
2022/01/30 03:01:25;;;;;;;2.15;1.70;;;;;;;17.82;25.37;97526.75;5148707;28;20041;-63
2022/01/30 03:03:51;;;;;;;2.20;1.55;;;;;;;17.81;25.27;97519.75;5148633;27;20065;-63
2022/01/30 03:06:16;;;;;;;1.65;1.48;;;;;;;17.80;25.13;97518.09;5148716;28;20255;-63
2022/01/30 03:08:42;;;;;;;2.83;1.90;;;;;;;17.79;25.25;97521.81;5148609;27;20015;-63
2022/01/30 03:11:07;;;;;;;2.40;1.98;;;;;;;17.79;25.22;97518.34;5148674;28;20033;-63
2022/01/30 03:13:33;;;;;;;3.30;1.83;;;;;;;17.79;25.31;97518.34;5148407;27;20054;-63
2022/01/30 03:16:03;;;;;;;2.28;1.60;;;;;;;17.79;25.24;97515.66;5136213;27;20006;-63
2022/01/30 03:18:29;;;;;;;3.00;1.90;;;;;;;17.77;25.39;97515.06;5169158;27;20246;-63
2022/01/30 03:20:54;;;;;;;2.13;1.70;;;;;;;17.76;25.46;97506.22;5169290;27;20011;-63
2022/01/30 03:23:40;;;;;;;2.42;1.75;;;;;;;17.78;25.33;97508.66;5172765;27;20031;-63
2022/01/30 03:26:07;;;;;;;2.20;1.63;;;;;;;17.78;25.46;97504.16;5172854;27;20030;-63
2022/01/30 03:28:33;;;;;;;2.45;1.50;;;;;;;17.78;25.41;97501.47;5155096;27;20014;-63
2022/01/30 03:31:03;;;;;;;3.28;1.67;;;;;;;17.76;25.51;97500.88;5169861;27;20042;-63
2022/01/30 03:33:28;;;;;;;2.40;1.88;;;;;;;17.76;25.49;97495.53;5156483;27;20086;-63
2022/01/30 03:35:54;;;;;;;2.00;1.70;;;;;;;17.77;25.21;97489.16;5173190;27;20026;-63
2022/01/30 03:38:21;;;;;;;1.70;1.40;;;;;;;17.75;25.39;97491.22;5173034;27;20135;-62
2022/01/30 03:40:50;;;;;;;2.83;1.67;;;;;;;17.76;25.53;97484.81;5173165;27;20066;-63
2022/01/30 03:43:16;;;;;;;2.65;1.70;;;;;;;17.75;25.37;97477.84;5172889;27;20234;-63
2022/01/30 03:45:43;;;;;;;2.20;1.58;;;;;;;17.75;25.22;97474.31;5173019;27;20015;-63
2022/01/30 03:48:09;;;;;;;2.00;1.50;;;;;;;17.73;25.63;97471.88;5172887;27;20014;-63
2022/01/30 03:50:35;;;;;;;2.22;1.40;;;;;;;17.73;25.58;97466.53;5172972;27;20132;-63
2022/01/30 03:53:01;;;;;;;2.70;1.95;;;;;;;17.73;25.51;97461.19;5172802;27;20022;-63
2022/01/30 03:55:26;;;;;;;1.88;1.52;;;;;;;17.73;25.46;97446.97;5172899;27;20015;-63
2022/01/30 03:57:52;;;;;;;2.35;1.73;;;;;;;17.73;25.39;97446.97;5172687;27;20077;-63
2022/01/30 04:00:18;;;;;;;1.75;1.23;;;;;;;17.74;25.30;97443.25;5172763;27;20014;-63
2022/01/30 04:02:45;;;;;;;1.90;1.52;;;;;;;17.71;25.43;97444.53;5172658;27;20078;-63
2022/01/30 04:05:10;;;;;;;2.20;1.80;;;;;;;17.71;25.40;97436.50;5172631;27;20021;-63
2022/01/30 04:07:36;;;;;;;2.13;1.65;;;;;;;17.70;25.44;97432.19;5172576;27;20006;-63
2022/01/30 04:10:05;;;;;;;2.03;1.70;;;;;;;17.70;25.38;97434.88;5172611;27;20128;-63
2022/01/30 04:12:30;;;;;;;2.25;1.48;;;;;;;17.69;25.45;97426.03;5172351;27;20087;-63
2022/01/30 04:14:56;;;;;;;2.50;1.80;;;;;;;17.68;25.74;97427.06;5172515;27;20022;-64
2022/01/30 04:17:22;;;;;;;2.33;1.50;;;;;;;17.69;25.55;97426.03;5172259;27;20011;-63
2022/01/30 04:19:48;;;;;;;2.83;1.67;;;;;;;17.68;25.25;97424.41;5172362;27;20037;-64
2022/01/30 04:22:14;;;;;;;2.65;1.60;;;;;;;17.68;25.48;97419.06;5151483;27;20224;-64
2022/01/30 04:24:40;;;;;;;2.05;1.52;;;;;;;17.67;25.48;97422.75;5151483;27;20075;-64
2022/01/30 04:27:05;;;;;;;2.17;1.48;;;;;;;17.67;25.34;97420.09;5168078;27;20079;-63
2022/01/30 04:29:31;;;;;;;2.25;1.23;;;;;;;17.66;25.62;97410.44;5172215;27;20272;-63
2022/01/30 04:31:57;;;;;;;2.88;1.25;;;;;;;17.67;25.47;97419.25;5172140;27;20018;-63
2022/01/30 04:34:24;;;;;;;1.92;1.25;;;;;;;17.67;25.67;97414.75;5163389;27;20237;-63
2022/01/30 04:40:13;;;;;;;1.88;1.40;;;;;;;17.67;25.35;97408.56;5151212;27;20030;-64
2022/01/30 04:58:21;;;;;;;1.40;1.13;;;;;;;17.65;25.90;97376.69;5171470;27;20068;-63
2022/01/30 05:06:07;;;;;;;1.40;1.20;;;;;;;17.65;25.87;97387.41;5171503;27;20014;-63
2022/01/30 05:08:33;;;;;;;1.75;1.20;;;;;;;17.64;25.63;97372.38;5171346;27;20015;-63
2022/01/30 05:11:01;;;;;;;1.90;1.40;;;;;;;17.64;25.54;97372.38;5154744;27;20021;-63
2022/01/30 05:13:30;;;;;;;1.75;1.30;;;;;;;17.64;25.62;97380.41;5150298;27;20138;-63
2022/01/30 05:15:56;;;;;;;1.30;1.02;;;;;;;17.63;25.92;97381.44;5150469;27;20019;-63
2022/01/30 05:18:26;;;;;;;2.30;1.40;;;;;;;17.64;25.66;97372.38;5150293;27;20063;-63
2022/01/30 05:20:52;;;;;;;1.30;1.00;;;;;;;17.65;25.88;97370.50;5150321;27;20029;-63
2022/01/30 05:23:18;;;;;;;1.52;1.05;;;;;;;17.66;25.62;97381.00;5150305;27;20023;-63
2022/01/30 05:25:47;;;;;;;1.20;0.82;;;;;;;17.65;25.67;97371.34;5150279;27;20086;-63
2022/01/30 05:28:14;;;;;;;1.90;1.05;;;;;;;17.66;25.82;97364.97;5150122;27;20023;-63
2022/01/30 05:30:40;;;;;;;1.48;0.95;;;;;;;17.64;25.87;97367.03;5150076;27;20043;-63
2022/01/30 05:33:05;;;;;;;1.70;1.30;;;;;;;17.63;25.61;97357.38;5150077;27;20026;-63
2022/01/30 05:35:32;;;;;;;1.58;1.17;;;;;;;17.64;25.65;97359.00;5168217;27;20014;-63
2022/01/30 05:37:58;;;;;;;1.60;1.10;;;;;;;17.64;25.54;97350.19;5170683;27;20277;-63
2022/01/30 05:40:24;;;;;;;1.40;1.10;;;;;;;17.62;25.57;97353.06;5170821;27;20011;-63
2022/01/30 05:42:50;;;;;;;1.45;1.00;;;;;;;17.64;25.36;97355.53;5170464;27;20027;-63
2022/01/30 05:45:28;;;;;;;2.13;1.27;;;;;;;17.64;25.30;97356.34;5170362;27;20082;-63
2022/01/30 05:47:57;;;;;;;1.15;0.93;;;;;;;17.61;25.23;97351.41;5170830;27;20124;-64
2022/01/30 05:50:23;;;;;;;1.88;1.02;;;;;;;17.61;25.13;97346.06;5170940;27;20014;-63
2022/01/30 05:52:49;;;;;;;1.30;0.98;;;;;;;17.61;25.34;97346.06;5170526;27;20014;-64
2022/01/30 05:55:14;;;;;;;2.05;1.45;;;;;;;17.60;25.22;97349.78;5170530;27;20014;-63
2022/01/30 05:57:40;;;;;;;1.38;0.90;;;;;;;17.61;25.33;97351.41;5170323;27;20015;-63
2022/01/30 06:00:08;;;;;;;1.08;0.68;;;;;;;17.60;25.44;97333.75;5170403;27;20010;-63
2022/01/30 06:02:34;;;;;;;1.30;0.80;;;;;;;17.62;25.27;97342.38;5170299;27;20022;-63
2022/01/30 06:05:00;;;;;;;1.15;0.90;;;;;;;17.60;25.27;97343.63;5170336;27;20033;-63
2022/01/30 06:07:29;;;;;;;0.88;0.70;;;;;;;17.61;25.34;97340.72;5170185;27;20030;-63
2022/01/30 06:09:55;;;;;;;0.85;0.60;;;;;;;17.61;25.22;97340.72;5170296;27;20045;-63
2022/01/30 06:12:21;;;;;;;0.88;0.50;;;;;;;17.61;25.38;97334.56;5169943;27;20124;-63
2022/01/30 06:14:47;;;;;;;0.88;0.65;;;;;;;17.61;25.29;97331.91;5151858;27;20022;-63
2022/01/30 06:17:13;;;;;;;0.93;0.68;;;;;;;17.60;25.55;97323.03;5170193;27;20205;-63
2022/01/30 06:19:39;;;;;;;0.93;0.77;;;;;;;17.61;25.02;97324.69;5170045;27;20130;-63
2022/01/30 06:22:04;;;;;;;0.60;0.60;;;;;;;17.60;25.49;97331.06;5169949;27;20042;-64
2022/01/30 06:24:30;;;;;;;0.95;0.73;;;;;;;17.61;25.36;97326.56;5169987;27;20074;-63
2022/01/30 06:26:56;;;;;;;1.08;0.63;;;;;;;17.61;25.27;97329.22;5169760;27;20014;-63
2022/01/30 06:29:21;;;;;;;1.30;0.80;;;;;;;17.59;25.47;97324.09;5169839;27;20033;-63
2022/01/30 06:31:47;;;;;;;0.70;0.70;;;;;;;17.60;25.47;97331.06;5170157;27;20023;-63
2022/01/30 06:34:13;;;;;;;1.83;0.80;;;;;;;17.61;25.24;97331.91;5162757;27;20026;-63
2022/01/30 06:36:38;;;;;;;0.75;0.68;;;;;;;17.61;25.42;97337.25;5148953;27;20030;-63
2022/01/30 06:39:04;;;;;;;2.92;0.90;;;;;;;17.61;25.46;97327.34;5148934;27;20023;-63
2022/01/30 06:41:29;;;;;;;0.75;0.55;;;;;;;17.60;25.47;97328.41;5150454;27;20072;-63
2022/01/30 06:43:55;;;;;;;0.75;0.60;;;;;;;17.60;26.00;97323.03;5169679;27;20068;-64
2022/01/30 06:46:20;;;;;;;1.15;0.70;;;;;;;17.62;25.75;97330.88;5169871;27;20021;-63
2022/01/30 06:48:46;;;;;;;1.08;0.60;;;;;;;17.61;25.66;97329.22;5169556;27;20014;-63
2022/01/30 06:51:11;;;;;;;1.00;0.60;;;;;;;17.61;25.38;97323.88;5169544;27;20169;-63
2022/01/30 06:53:37;;;;;;;1.05;0.57;;;;;;;17.60;25.23;97327.59;5169517;27;20198;-63
2022/01/30 06:56:06;;;;;;;1.23;0.65;;;;;;;17.59;25.35;97323.28;5168561;27;20124;-62
2022/01/30 06:58:31;;;;;;;0.65;0.47;;;;;;;17.59;25.34;97321.41;5169255;27;20015;-64
2022/01/30 07:00:57;;;;;;;1.27;0.55;;;;;;;17.60;25.70;97322.25;5169499;27;20022;-64
2022/01/30 07:03:22;;;;;;;0.52;0.40;;;;;;;17.59;25.62;97321.41;5169450;27;20014;-64
2022/01/30 07:05:48;;;;;;;0.60;0.47;;;;;;;17.61;25.56;97321.22;5169480;27;20042;-64
2022/01/30 07:08:13;;;;;;;0.38;0.35;;;;;;;17.61;25.40;97307.84;5168795;27;20120;-63
2022/01/30 07:10:40;;;;;;;0.88;0.60;;;;;;;17.59;25.48;97316.06;5169099;27;20228;-62
2022/01/30 07:13:07;;;;;;;0.88;0.63;;;;;;;17.62;25.38;97314.81;5169209;27;20027;-64
2022/01/30 07:15:33;;;;;;;0.63;0.38;;;;;;;17.63;25.27;97313.78;5169583;27;20128;-63
2022/01/30 07:17:58;;;;;;;1.52;0.80;;;;;;;17.61;25.28;97303.28;5168743;27;20025;-61
2022/01/30 07:20:24;;;;;;;0.85;0.60;;;;;;;17.62;25.47;97309.47;5169218;27;20136;-62
2022/01/30 07:22:50;;;;;;;0.95;0.57;;;;;;;17.63;25.39;97311.09;5169144;27;20018;-62
2022/01/30 07:25:15;;;;;;;0.55;0.40;;;;;;;17.62;25.27;97309.47;5169246;27;20029;-64
2022/01/30 07:27:42;;;;;;;1.73;0.95;;;;;;;17.62;25.00;97310.28;5169117;27;20022;-64
2022/01/30 07:30:08;;;;;;;1.30;0.60;;;;;;;17.62;25.35;97304.94;5169212;27;20216;-64
2022/01/30 07:32:34;;;;;;;2.05;1.05;;;;;;;17.64;25.27;97308.19;5169092;27;20019;-64
2022/01/30 07:35:00;;;;;;;0.77;0.55;;;;;;;17.63;25.34;97298.53;5155452;27;20086;-63
2022/01/30 07:37:26;;;;;;;0.95;0.60;;;;;;;17.63;25.47;97305.75;5148279;27;20213;-64
2022/01/30 07:39:52;;;;;;;0.65;0.50;;;;;;;17.65;25.67;97303.66;5148275;27;20015;-64
2022/01/30 07:42:19;;;;;;;1.48;0.73;;;;;;;17.63;25.47;97293.19;5156673;27;20063;-63
2022/01/30 07:44:44;;;;;;;1.10;0.70;;;;;;;17.64;25.53;97305.53;5169086;27;20015;-64
2022/01/30 07:47:10;;;;;;;0.85;0.45;;;;;;;17.66;25.43;97302.63;5168968;27;20021;-64
2022/01/30 07:49:35;;;;;;;0.82;0.60;;;;;;;17.64;25.75;97289.47;5169058;27;20018;-63
2022/01/30 07:52:01;;;;;;;0.95;0.52;;;;;;;17.65;25.67;97288.44;5168993;27;20018;-63
2022/01/30 07:54:26;;;;;;;0.45;0.40;;;;;;;17.67;25.87;97282.88;5169008;27;20087;-63
2022/01/30 07:56:52;;;;;;;1.90;0.93;;;;;;;17.67;25.63;97286.38;5168922;27;20011;-63
2022/01/30 07:59:18;;;;;;;0.85;0.80;;;;;;;17.68;25.78;97282.66;5168858;27;20034;-63
2022/01/30 08:01:43;;;;;;;1.13;0.65;;;;;;;17.69;25.78;97286.97;5168888;27;20011;-64
2022/01/30 08:04:09;;;;;;;0.57;0.55;;;;;;;17.71;26.08;97284.06;5168727;27;20232;-64
2022/01/30 08:06:35;;;;;;;1.52;0.70;;;;;;;17.72;25.52;97277.69;5157655;27;20019;-63
2022/01/30 08:09:01;;;;;;;1.23;0.88;;;;;;;17.74;25.73;97269.41;5151069;27;20156;-63
2022/01/30 08:11:26;;;;;;;1.30;0.70;;;;;;;17.76;25.75;97275.38;5151683;27;20022;-63
2022/01/30 08:13:52;;;;;;;1.00;0.90;;;;;;;17.75;25.53;97268.38;5151679;27;20030;-63
2022/01/30 08:16:20;;;;;;;2.17;0.77;;;;;;;17.78;25.65;97276.78;5151605;27;20027;-63
2022/01/30 08:18:45;;;;;;;1.35;1.17;;;;;;;17.77;25.55;97277.00;5151423;27;20019;-63
2022/01/30 08:21:11;;;;;;;0.73;0.50;;;;;;;17.75;25.64;97277.25;5151564;27;20030;-63
2022/01/30 08:23:36;;;;;;;1.40;0.70;;;;;;;17.78;26.05;97275.97;5153137;27;20027;-63
2022/01/30 08:26:03;;;;;;;2.35;0.50;;;;;;;17.79;25.52;97273.06;5171950;27;20071;-62
2022/01/30 08:28:29;;;;;;;1.42;0.70;;;;;;;17.82;25.44;97277.16;5172042;27;20027;-62
2022/01/30 08:30:54;;;;;;;0.90;0.63;;;;;;;17.81;25.21;97279.00;5172154;27;20045;-62
2022/01/30 08:33:20;;;;;;;2.60;0.70;;;;;;;17.82;25.27;97283.31;5171641;27;20014;-62
2022/01/30 08:35:46;;;;;;;1.23;0.65;;;;;;;17.83;25.34;97281.47;5151619;27;20079;-62
2022/01/30 08:38:15;;;;;;;1.77;0.70;;;;;;;17.84;25.04;97281.25;5151079;27;20023;-62
2022/01/30 08:40:40;;;;;;;2.40;0.65;;;;;;;17.83;25.19;97276.13;5150979;27;20030;-63
2022/01/30 08:43:06;;;;;;;1.27;0.80;;;;;;;17.83;25.33;97276.13;5156241;27;20014;-62
2022/01/30 08:45:32;;;;;;;1.25;0.70;;;;;;;17.83;25.14;97260.88;5171836;27;20018;-62
2022/01/30 08:47:57;;;;;;;0.90;0.52;;;;;;;17.84;25.13;97267.06;5171485;27;20021;-63
2022/01/30 08:50:24;;;;;;;1.23;0.63;;;;;;;17.82;25.09;97267.25;5171771;27;20022;-64
2022/01/30 08:52:50;;;;;;;1.13;0.70;;;;;;;17.83;25.02;97263.56;5171543;27;20041;-63
2022/01/30 08:55:16;;;;;;;1.00;0.68;;;;;;;17.84;25.00;97251.81;5171607;27;20014;-63
2022/01/30 08:57:42;;;;;;;1.00;0.70;;;;;;;17.85;25.25;97249.97;5171015;27;20018;-63
2022/01/30 09:00:14;;;;;;;1.70;0.60;;;;;;;17.88;27.09;97256.72;5172101;27;20175;-64
2022/01/30 09:02:40;;;;;;;0.75;0.60;;;;;;;17.99;26.09;97248.78;5171353;27;20038;-62
2022/01/30 09:05:07;;;;;;;1.35;0.70;;;;;;;18.06;25.78;97250.56;5171277;27;20015;-64
2022/01/30 09:07:33;;;;;;;1.60;1.00;;;;;;;18.06;25.35;97246.03;5171074;27;20010;-62
2022/01/30 09:09:58;;;;;;;1.08;0.77;;;;;;;18.07;25.30;97252.19;5171054;27;20057;-63
2022/01/30 09:12:24;;;;;;;1.42;0.73;;;;;;;18.07;25.07;97250.34;5171180;27;20179;-62
2022/01/30 09:14:50;;;;;;;1.77;0.75;;;;;;;18.08;25.19;97243.13;5171259;27;20023;-62
2022/01/30 09:17:16;;;;;;;1.75;0.85;;;;;;;18.08;25.09;97243.13;5170679;27;20026;-62
2022/01/30 09:19:44;;;;;;;1.10;0.65;;;;;;;18.08;25.15;97237.78;5169330;27;20087;-63
2022/01/30 09:22:11;;;;;;;1.73;0.82;;;;;;;18.08;25.56;97241.28;5170884;27;20015;-62
2022/01/30 09:24:37;;;;;;;2.33;1.02;;;;;;;18.09;25.28;97228.69;5170020;27;20075;-64
2022/01/30 09:27:03;;;;;;;3.25;1.20;;;;;;;18.12;25.39;97228.25;5170594;27;20006;-62
2022/01/30 09:29:29;;;;;;;1.27;0.95;;;;;;;18.15;25.51;97222.47;5169891;27;20417;-63
2022/01/30 09:31:56;;;;;;;1.27;1.02;;;;;;;18.20;25.52;97224.44;5168237;27;20069;-64
2022/01/30 09:34:22;;;;;;;8.23;1.30;;;;;;;18.19;25.51;97228.97;5168924;27;20022;-62
2022/01/30 09:36:48;;;;;;;1.75;1.05;;;;;;;18.22;26.61;97233.88;5169458;27;20015;-64
2022/01/30 09:39:13;;;;;;;2.85;1.23;;;;;;;18.29;25.92;97213.19;5169080;27;20162;-64
2022/01/30 09:41:42;;;;;;;2.88;1.20;;;;;;;18.30;25.34;97209.47;5170531;27;20139;-63
2022/01/30 09:44:09;;;;;;;4.88;1.13;;;;;;;18.29;25.41;97198.97;5170571;27;20018;-61
2022/01/30 09:46:39;;;;;;;1.45;0.93;;;;;;;18.28;25.43;97200.84;5170613;27;20139;-63
2022/01/30 09:49:06;;;;;;;2.10;1.05;;;;;;;18.29;25.34;97199.81;5173490;27;20018;-64
2022/01/30 09:51:33;;;;;;;4.63;1.70;;;;;;;18.26;25.95;97202.09;5169258;27;20015;-63
2022/01/30 09:53:59;;;;;;;3.50;1.60;;;;;;;18.11;26.45;97207.88;5167301;27;20255;-61
2022/01/30 09:56:25;;;;;;;5.32;1.80;;;;;;;17.92;27.05;97202.53;5170686;27;20090;-63
2022/01/30 09:58:52;;;;;;;2.47;1.48;;;;;;;17.79;27.31;97203.50;5170128;27;20128;-62
2022/01/30 10:01:17;;;;;;;2.35;1.30;;;;;;;17.66;27.36;97203.69;5170040;27;20025;-63
2022/01/30 10:03:46;;;;;;;2.83;1.70;;;;;;;17.60;27.76;97202.72;5183351;27;20010;-62
2022/01/30 10:06:16;;;;;;;3.70;1.70;;;;;;;17.53;27.67;97207.34;5170150;27;20007;-60
2022/01/30 10:08:47;;;;;;;4.50;1.40;;;;;;;17.44;27.71;97195.28;5170320;27;19998;-61
2022/01/30 10:11:31;;;;;;;2.83;1.70;;;;;;;17.39;27.64;97196.78;5170068;27;20123;-61
2022/01/30 10:14:04;;;;;;;2.78;1.20;;;;;;;17.35;28.01;97192.94;5169257;27;20021;-60
2022/01/30 10:16:35;;;;;;;2.30;1.33;;;;;;;17.48;28.48;97196.50;5169740;27;20019;-63
2022/01/30 10:19:08;;;;;;;2.72;0.95;;;;;;;17.71;28.27;97195.81;5169879;27;20023;-62
2022/01/30 10:21:34;;;;;;;2.17;1.30;;;;;;;17.91;28.50;97205.44;5158077;27;20136;-63
2022/01/30 10:24:00;;;;;;;2.03;1.05;;;;;;;18.09;28.18;97196.59;5149043;27;20019;-63
2022/01/30 10:26:32;;;;;;;2.25;1.13;;;;;;;18.21;27.55;97188.63;5149091;27;20018;-63
2022/01/30 10:29:16;;;;;;;2.17;0.88;;;;;;;18.22;27.73;97190.25;5156000;27;20027;-62
2022/01/30 10:32:08;;;;;;;1.70;0.80;;;;;;;18.28;28.01;97167.91;5131216;27;20053;-63
2022/01/30 10:34:36;;;;;;;2.78;0.95;;;;;;;18.33;27.44;97177.91;5154559;27;20147;-63
2022/01/30 10:37:18;;;;;;;1.40;0.85;;;;;;;18.26;27.06;97173.50;5169594;27;20042;-63
2022/01/30 10:39:54;;;;;;;2.97;1.08;;;;;;;18.17;26.99;97174.03;5162362;27;20025;-63
2022/01/30 10:42:30;;;;;;;1.92;1.17;;;;;;;18.06;26.87;97164.94;5169465;27;20238;-63
2022/01/30 10:44:56;;;;;;;1.63;1.02;;;;;;;18.00;26.81;97166.66;5169654;27;20085;-63
2022/01/30 10:47:22;;;;;;;2.20;1.10;;;;;;;17.94;26.69;97157.66;5169087;27;20033;-63
2022/01/30 10:49:47;;;;;;;2.70;1.08;;;;;;;17.90;26.80;97161.81;5169268;27;20030;-62
2022/01/30 10:52:13;;;;;;;2.20;1.17;;;;;;;17.89;26.51;97152.16;5169167;27;20023;-62
2022/01/30 10:54:40;;;;;;;1.65;1.00;;;;;;;17.89;26.40;97151.34;5169487;27;20121;-62
2022/01/30 10:57:08;;;;;;;1.10;0.90;;;;;;;17.86;26.39;97149.97;5169226;27;20026;-62
2022/01/30 10:59:35;;;;;;;1.50;0.80;;;;;;;17.85;26.48;97143.78;5169375;27;20026;-62
2022/01/30 11:02:17;;;;;;;2.38;1.13;;;;;;;17.80;26.30;97132.13;5169358;27;20018;-62
2022/01/30 11:04:45;;;;;;;3.10;1.30;;;;;;;17.75;26.43;97137.31;5169447;27;20014;-64
2022/01/30 11:07:11;;;;;;;2.10;1.02;;;;;;;17.74;26.33;97130.34;5169565;27;20007;-62
2022/01/30 11:09:44;;;;;;;2.78;1.02;;;;;;;17.72;26.18;97135.13;5167739;27;20234;-62
2022/01/30 11:12:15;;;;;;;1.10;0.95;;;;;;;17.66;26.20;97121.59;5148390;27;20147;-62
2022/01/30 11:17:20;;;;;;;1.45;1.05;;;;;;;17.60;26.87;97116.34;5148727;27;20068;-62
2022/01/30 11:19:48;;;;;;;1.13;0.95;;;;;;;17.60;26.14;97117.16;5148551;28;20122;-62
2022/01/30 11:22:15;;;;;;;1.63;0.90;;;;;;;17.58;26.15;97100.50;5148451;27;20023;-65
2022/01/30 11:24:45;;;;;;;2.40;1.00;;;;;;;17.59;26.14;97109.38;5148332;28;20019;-62
2022/01/30 11:27:11;;;;;;;1.75;1.05;;;;;;;17.56;26.37;97101.78;5148531;27;20049;-64
2022/01/30 11:29:37;;;;;;;1.48;1.00;;;;;;;17.53;26.23;97098.53;5148338;28;20128;-62
2022/01/30 11:32:07;;;;;;;1.33;0.98;;;;;;;17.48;26.17;97094.91;5148291;27;20007;-63
2022/01/30 11:34:35;;;;;;;2.28;0.95;;;;;;;17.48;26.44;97098.41;5158090;27;20231;-63
2022/01/30 11:37:02;;;;;;;1.60;0.93;;;;;;;17.44;26.44;97088.38;5169016;27;20007;-64
2022/01/30 11:39:28;;;;;;;1.45;1.00;;;;;;;17.42;26.25;97093.16;5169084;27;20022;-64
2022/01/30 11:42:14;;;;;;;2.38;1.17;;;;;;;17.38;26.28;97076.72;5164090;27;20087;-62
2022/01/30 11:44:44;;;;;;;2.63;1.17;;;;;;;17.34;26.18;97072.88;5152180;27;20011;-62
2022/01/30 11:47:09;;;;;;;1.13;0.90;;;;;;;17.36;26.26;97079.63;5152179;27;20011;-62
2022/01/30 11:49:48;;;;;;;1.25;0.93;;;;;;;17.40;25.98;97080.00;5152187;27;20095;-62
2022/01/30 11:52:16;;;;;;;2.17;1.00;;;;;;;17.37;26.25;97067.91;5152285;27;20021;-63
2022/01/30 11:54:42;;;;;;;1.20;0.90;;;;;;;17.39;26.03;97073.84;5152063;27;20015;-63
2022/01/30 11:57:20;;;;;;;1.30;0.82;;;;;;;17.41;26.07;97075.47;5151803;27;20047;-62
2022/01/30 11:59:54;;;;;;;1.50;1.10;;;;;;;17.41;26.16;97062.91;5152206;27;20014;-62
2022/01/30 12:02:30;;;;;;;1.65;1.10;;;;;;;17.39;26.02;97076.50;5151903;27;20074;-62
2022/01/30 12:05:33;;;;;;;1.60;1.00;;;;;;;17.29;26.38;97064.72;5151839;27;20091;-62
2022/01/30 12:07:58;;;;;;;2.38;1.33;;;;;;;17.22;26.14;97060.25;5151694;27;20056;-62
2022/01/30 12:10:26;;;;;;;2.22;0.90;;;;;;;17.23;26.35;97071.78;5151809;27;20014;-62
2022/01/30 12:12:56;;;;;;;1.40;0.98;;;;;;;17.20;26.11;97072.22;5151484;27;20043;-62
2022/01/30 12:15:44;;;;;;;2.15;0.90;;;;;;;17.10;26.31;97071.94;5151732;27;20228;-62
2022/01/30 12:18:15;;;;;;;1.25;0.90;;;;;;;17.01;26.47;97076.75;5151368;27;20075;-62
2022/01/30 12:21:00;;;;;;;1.60;0.85;;;;;;;16.95;26.63;97075.81;5151561;27;20029;-62
2022/01/30 12:23:38;;;;;;;2.72;1.20;;;;;;;16.93;26.37;97072.50;5151392;27;20011;-63
2022/01/30 12:26:14;;;;;;;2.13;1.10;;;;;;;16.88;26.62;97075.00;5151464;27;20015;-62
2022/01/30 12:28:50;;;;;;;1.65;1.00;;;;;;;16.85;26.25;97076.28;5151279;27;20015;-63
2022/01/30 12:31:36;;;;;;;2.35;1.38;;;;;;;16.81;26.37;97072.41;5157204;27;20006;-63